Home > Products > Valid Products > TAF

000
FTUS44 KEWX 310800 AAC
TAFSAT
TAF AMD
KSAT 310838Z 3109/0112 35009KT P6SM -TSRA BKN012 OVC040CB
      TEMPO 3109/3111 4SM TSRA BR SCT010 BKN035CB
     FM311100 01012G22KT P6SM SCT035 BKN060
     FM311500 02014G24KT P6SM FEW060
     FM010000 03007KT P6SM SKC=



000
FTUS44 KEWX 310800 AAB
TAFSAT
TAF AMD
KSAT 310829Z 3108/0112 04003KT P6SM -RA SCT011 BKN070 OVC120
      TEMPO 3108/3111 4SM TSRA BR SCT010 BKN035CB
     FM311100 01012G22KT P6SM SCT035 BKN060
     FM311500 02014G24KT P6SM FEW060
     FM010000 03007KT P6SM SKC=



000
FTUS44 KEWX 310800 AAA
TAFDRT
TAF AMD
KDRT 310810Z 3108/0106 06005KT P6SM SKC
     FM311100 01012KT P6SM VCSH BKN040
     FM311500 01013G23KT P6SM BKN050
     FM010100 04006KT P6SM SCT250=



000
FTUS44 KEWX 310700 AAA
TAFAUS
TAF AMD
KAUS 310704Z 3107/0112 34003KT P6SM BKN070 OVC100
      TEMPO 3108/3109 4SM -SHRA BR BKN035 OVC080
     FM310900 36011KT P6SM BKN070
     FM311400 01014G24KT P6SM FEW250
     FM010000 01007KT P6SM SKC=



000
FTUS44 KEWX 310700 AAA
TAFSAT
TAF AMD
KSAT 310701Z 3107/0112 02003KT P6SM BKN010
      TEMPO 3108/3111 4SM -SHRA BR SCT010 BKN035
     FM311100 01012G22KT P6SM SCT035 BKN060
     FM311500 02014G24KT P6SM SCT060
     FM010000 03007KT P6SM SKC=



000
FTUS44 KEWX 310500
TAFDRT
TAF
KDRT 310525Z 3106/0106 00000KT P6SM SKC
     FM310800 02010KT 4SM -SHRA BR BKN030 OVC060
     FM311100 01012KT P6SM BKN040
     FM311400 01013G23KT P6SM BKN050
     FM010100 04006KT P6SM SCT250=



000
FTUS44 KEWX 310500
TAFSAT
TAF
KSAT 310525Z 3106/0112 11004KT P6SM FEW080
     FM310800 02008KT 4SM -SHRA BR BKN030
     FM311100 01012G22KT P6SM SCT035 BKN060
     FM311500 02014G24KT P6SM SCT060
     FM010000 03007KT P6SM SKC=



000
FTUS44 KEWX 310500
TAFAUS
TAF
KAUS 310525Z 3106/0112 00000KT P6SM VCSH BKN060 OVC080
      TEMPO 3107/3109 4SM -SHRA BR BKN035 OVC080
     FM310900 36011KT P6SM BKN070
     FM311400 01014G24KT P6SM FEW250
     FM010000 01007KT P6SM SKC=



000
FTUS44 KEWX 310200 AAA
TAFAUS
TAF AMD
KAUS 310223Z 3102/0106 09005KT P6SM FEW250
     FM310800 01009KT 4SM -SHRA BR BKN035 OVC080
     FM311000 36011KT P6SM BKN070
     FM311400 36014G24KT P6SM FEW250
     FM311600 01014G24KT P6SM FEW250
     FM010000 02008KT P6SM SKC=



000
FTUS44 KEWX 310200 AAA
TAFSAT
TAF AMD
KSAT 310223Z 3102/0106 10005KT P6SM FEW250
     FM310600 02005KT P6SM BKN030
     FM311000 02008KT 4SM -SHRA BR BKN035
     FM311200 01012G22KT P6SM SCT035 BKN060
     FM311500 02014G24KT P6SM SCT060
     FM010000 03007KT P6SM SKC=



000
FTUS44 KEWX 302300
TAFSAT
TAF
KSAT 302322Z 3100/0106 VRB03KT P6SM FEW050
     FM310600 02005KT P6SM BKN030
     FM311000 02008KT 4SM -SHRA BR BKN035
     FM311200 01012G22KT P6SM SCT035 BKN060
     FM311500 02014G24KT P6SM SCT060
     FM010000 03007KT P6SM SKC=



000
FTUS44 KEWX 302300
TAFAUS
TAF
KAUS 302322Z 3100/0106 02005KT P6SM FEW050 FEW150
     FM310800 01009KT 4SM -SHRA BR BKN035 OVC080
     FM311000 36011KT P6SM BKN070
     FM311400 36014G24KT P6SM FEW250
     FM311600 01014G24KT P6SM FEW250
     FM010000 02008KT P6SM SKC=



000
FTUS44 KEWX 302300
TAFDRT
TAF
KDRT 302322Z 3100/3124 10006KT P6SM SCT250
     FM310800 08006KT P6SM BKN030
     FM311100 02010KT 4SM -SHRA BR BKN030 OVC050
     FM311500 01013G23KT P6SM BKN035
     FM312300 30006KT P6SM BKN050=



000
FTUS44 KEWX 301700
TAFDRT
TAF
KDRT 301728Z 3018/3118 16007KT P6SM FEW035
     FM310100 10005KT P6SM SCT040
     FM310800 08006KT P6SM BKN030
     FM311100 04010KT 4SM -SHRA BR BKN030 OVC050
     FM311500 05013G23KT P6SM BKN035=



000
FTUS44 KEWX 301700
TAFSAT
TAF
KSAT 301728Z 3018/3124 05004KT P6SM SCT020
     FM301900 VRB04KT P6SM SCT035
     FM310600 02005KT P6SM BKN030
     FM311000 02008KT 4SM -SHRA BR BKN035
     FM311200 01012G22KT P6SM SCT035 BKN060
     FM311800 02014G24KT P6SM SCT060=



000
FTUS44 KEWX 301700
TAFAUS
TAF
KAUS 301728Z 3018/3124 06005KT P6SM SCT035 SCT100
     FM310800 01009KT 4SM -SHRA BR BKN035 OVC080
     FM311000 36011KT 4SM BR BKN070
     FM311400 36012KT P6SM SCT250
     FM311600 01014G24KT P6SM FEW250=



000
FTUS44 KEWX 301700
TAFAUS
TAF
KAUS 301728Z 3018/3124 06005KT P6SM SCT035 SCT100
     FM310800 01009KT 4SM -SHRA BR BKN035 OVC080
     FM311000 36011KT 4SM BR BKN070
     FM311400 36012KT P6SM SCT250
     FM311600 01014G24KT P6SM FEW250=



000
FTUS44 KEWX 301700
TAFSAT
TAF
KSAT 301728Z 3018/3124 05004KT P6SM SCT020
     FM301900 VRB04KT P6SM SCT035
     FM310600 02005KT P6SM BKN030
     FM311000 02008KT 4SM -SHRA BR BKN035
     FM311200 01012G22KT P6SM SCT035 BKN060
     FM311800 02014G24KT P6SM SCT060=



000
FTUS44 KEWX 301700
TAFDRT
TAF
KDRT 301728Z 3018/3118 16007KT P6SM FEW035
     FM310100 10005KT P6SM SCT040
     FM310800 08006KT P6SM BKN030
     FM311100 04010KT 4SM -SHRA BR BKN030 OVC050
     FM311500 05013G23KT P6SM BKN035=



000
FTUS44 KEWX 301400 AAA
TAFDRT
TAF AMD
KDRT 301433Z 3015/3112 12003KT P6SM FEW015
      TEMPO 3015/3016 5SM BR
     FM301700 15005KT P6SM SCT035
     FM311000 01006KT 4SM -SHRA BR BKN050=



000
FTUS44 KEWX 301200 AAA
TAFAUS
TAF AMD
KAUS 301249Z 3013/3118 00000KT P6SM SCT020 SCT080
     FM310800 35007KT 4SM -SHRA BR BKN050
     FM311000 35006KT 4SM BR SCT250
     FM311300 35003KT P6SM SCT250=



000
FTUS44 KEWX 301100
TAFSAT
TAF
KSAT 301122Z 3012/3118 06003KT P6SM BKN009
     FM301500 07003KT P6SM BKN012
     FM301700 09003KT P6SM SCT035
     FM311000 34007KT 4SM -SHRA BR BKN035
     FM311200 35005KT P6SM SCT050=



000
FTUS44 KEWX 301100
TAFAUS
TAF
KAUS 301122Z 3012/3118 00000KT P6SM SCT020 BKN060
      TEMPO 3012/3016 BKN015
     FM301600 12005KT P6SM SCT050
     FM310800 35007KT 4SM -SHRA BR BKN050
     FM311000 35006KT 4SM BR SCT250
     FM311300 35003KT P6SM SCT250=



000
FTUS44 KEWX 301100
TAFDRT
TAF
KDRT 301122Z 3012/3112 12003KT P6SM SCT015
      TEMPO 3013/3016 BKN015
     FM301600 15005KT P6SM SCT035
     FM311000 01006KT 4SM -SHRA BR BKN050=



000
FTUS44 KEWX 301000 AAA
TAFSAT
TAF AMD
KSAT 301059Z 3011/3112 06003KT 6SM BR BKN009
     FM301700 09003KT P6SM SCT035
     FM310700 34007KT P6SM SCT015 BKN040 PROB30 3107/3110 4SM TSRA
      BKN015CB=



000
FTUS44 KEWX 301000 AAA
TAFSAT
TAF AMD
KSAT 301059Z 3011/3112 06003KT 6SM BR BKN009
     FM301700 09003KT P6SM SCT035
     FM310700 34007KT P6SM SCT015 BKN040 PROB30 3107/3110 4SM TSRA
      BKN015CB=



000
FTUS44 KEWX 301000 AAB
TAFAUS
TAF AMD
KAUS 301057Z 3011/3112 00000KT P6SM SCT020 BKN060
      TEMPO 3011/3014 5SM BR BKN012
     FM310500 35007KT P6SM FEW030 SCT070=



000
FTUS44 KEWX 301000 AAB
TAFAUS
TAF AMD
KAUS 301057Z 3011/3112 00000KT P6SM SCT020 BKN060
      TEMPO 3011/3014 5SM BR BKN012
     FM310500 35007KT P6SM FEW030 SCT070=



000
FTUS44 KEWX 301000 AAA
TAFDRT
TAF AMD
KDRT 301021Z 3010/3106 09005KT P6SM SCT015
     FM301200 12003KT P6SM BKN015
      TEMPO 3013/3016 BKN007
     FM301900 15005KT P6SM SCT035=



000
FTUS44 KEWX 300800 AAA
TAFAUS
TAF AMD
KAUS 300815Z 3008/3112 00000KT P6SM BKN011 BKN060
      TEMPO 3010/3014 5SM BR BKN009
     FM310500 35007KT P6SM FEW030 SCT070=



000
FTUS44 KEWX 300500
TAFDRT
TAF
KDRT 300531Z 3006/3106 11006KT P6SM SKC
     FM301000 09005KT P6SM BKN015
      TEMPO 3013/3016 BKN007
     FM301900 15005KT P6SM SCT035=



000
FTUS44 KEWX 300500
TAFSAT
TAF
KSAT 300531Z 3006/3112 07006KT P6SM FEW080
     FM301100 06003KT 6SM BR BKN015
     FM301700 09003KT P6SM SCT035
     FM310700 34007KT P6SM SCT015 BKN040 PROB30 3107/3110 4SM TSRA
      BKN015CB=



000
FTUS44 KEWX 300500
TAFAUS
TAF
KAUS 300531Z 3006/3112 00000KT P6SM FEW200
      TEMPO 3011/3015 5SM BR BKN012
     FM310500 35007KT P6SM FEW030 SCT070=



000
FTUS44 KEWX 292300
TAFSAT
TAF
KSAT 292340Z 3000/3106 06005KT P6SM FEW040 FEW070
     FM300600 04006KT P6SM BKN035 BKN070
     FM301100 06003KT 6SM BR BKN015
     FM301700 09003KT P6SM SCT035=



000
FTUS44 KEWX 292300
TAFDRT
TAF
KDRT 292340Z 3000/3024 12006KT P6SM SCT250
     FM301000 09005KT P6SM BKN015
      TEMPO 3013/3016 BKN007
     FM301900 15005KT P6SM SCT035=



000
FTUS44 KEWX 292300
TAFAUS
TAF
KAUS 292340Z 3000/3106 04009KT P6SM SCT080
     FM300100 VRB04KT P6SM SCT015
      TEMPO 3012/3016 BKN012=



000
FTUS44 KEWX 291800 AAA
TAFDRT
TAF AMD
KDRT 291853Z 2919/3018 VRB04KT P6SM SCT040
     FM292000 12007KT P6SM BKN050
     FM301000 09005KT P6SM BKN025=



000
FTUS44 KEWX 291700
TAFDRT
TAF
KDRT 291740Z 2918/3018 VRB04KT P6SM BKN025
     FM291900 11006KT P6SM BKN030
     FM292000 12007KT P6SM BKN050
     FM301000 09005KT P6SM BKN025=



000
FTUS44 KEWX 291700
TAFAUS
TAF
KAUS 291740Z 2918/3024 02009KT P6SM OVC070
     FM292100 03008KT P6SM BKN070
     FM300000 04005KT P6SM SCT060
     FM300800 VRB04KT P6SM BKN050
      TEMPO 3012/3016 SCT012=



000
FTUS44 KEWX 291700
TAFSAT
TAF
KSAT 291740Z 2918/3024 02005KT P6SM BKN070
     FM300600 04006KT P6SM BKN035 BKN070
      TEMPO 3011/3015 BKN025
     FM301700 08005KT P6SM BKN050=



000
FTUS44 KEWX 291600 AAA
TAFDRT
TAF AMD
KDRT 291607Z 2916/3012 05006KT P6SM OVC019
     FM291900 11006KT P6SM BKN030
     FM292000 12007KT P6SM BKN050=



000
FTUS44 KEWX 291600 AAB
TAFSAT
TAF AMD
KSAT 291601Z 2916/3018 02005KT P6SM SCT035 BKN070
     FM292100 03006KT P6SM BKN060=



000
FTUS44 KEWX 291200 AAA
TAFAUS
TAF AMD
KAUS 291236Z 2913/3018 35004KT P6SM BKN012 BKN035
     FM291500 01006KT P6SM BKN040
     FM292100 02006KT P6SM SCT050=



000
FTUS44 KEWX 291200 CCA
TAFSAT
TAF COR
KSAT 291235Z 2913/3018 02005KT P6SM BKN030
     FM292100 03006KT P6SM BKN050=



000
FTUS44 KEWX 291200 AAA
TAFSAT
TAF AMD
KSAT 291234Z 2913/3018 02005KT P6SM BKN012 BKN035
     FM291500 01006KT P6SM BKN035
     FM292100 03006KT P6SM BKN050=



000
FTUS44 KEWX 291100
TAFAUS
TAF
KAUS 291120Z 2912/3018 35004KT P6SM BKN035
     FM292100 02006KT P6SM SCT050=



000
FTUS44 KEWX 291100
TAFDRT
TAF
KDRT 291120Z 2912/3012 01006KT 5SM BR SCT015
     FM291300 35006KT P6SM SCT025
     FM292300 12007KT P6SM BKN050=



000
FTUS44 KEWX 291100
TAFSAT
TAF
KSAT 291120Z 2912/3018 02005KT P6SM SCT035
     FM292100 03006KT P6SM BKN050=



000
FTUS44 KEWX 291000 AAA
TAFDRT
TAF AMD
KDRT 291050Z 2911/3006 01006KT 4SM BR SCT015
     FM291300 35006KT P6SM SCT025
     FM291900 12007KT P6SM OVC050=



000
FTUS44 KEWX 291000 AAA
TAFDRT
TAF AMD
KDRT 291050Z 2911/3006 01006KT 4SM BR SCT015
     FM291300 35006KT P6SM SCT025
     FM291900 12007KT P6SM OVC050=



000
FTUS44 KEWX 290500
TAFDRT
TAF
KDRT 290535Z 2906/3006 36004KT P6SM SCT020 BKN250
     FM291100 01006KT P6SM OVC012
     FM291700 35006KT P6SM OVC025
     FM291900 12007KT P6SM OVC050=



000
FTUS44 KEWX 290500
TAFAUS
TAF
KAUS 290535Z 2906/3012 35004KT P6SM BKN040
     FM291100 35004KT 4SM -DZ OVC015
     FM291700 02006KT P6SM BKN035=



000
FTUS44 KEWX 290500
TAFSAT
TAF
KSAT 290535Z 2906/3012 VRB04KT P6SM SCT035 BKN150
     FM291100 02005KT 4SM -DZ OVC015
     FM291700 03006KT P6SM OVC035=



000
FTUS44 KEWX 282300
TAFDRT
TAF
KDRT 282323Z 2900/2924 30005KT P6SM SCT020 BKN250
     FM290500 01003KT P6SM BKN050
     FM291000 03006KT P6SM OVC010
     FM292000 10007KT P6SM BKN040=



000
FTUS44 KEWX 282300
TAFAUS
TAF
KAUS 282323Z 2900/3006 VRB04KT P6SM SCT040 BKN150
     FM290200 35004KT P6SM BKN040
     FM290600 05008KT P6SM -DZ OVC015
     FM291900 02007KT P6SM BKN040 BKN250=



000
FTUS44 KEWX 282300
TAFSAT
TAF
KSAT 282323Z 2900/3006 VRB04KT P6SM SCT035 BKN150
     FM290500 03005KT P6SM -DZ OVC015
     FM292100 05005KT P6SM BKN040 BKN250=



000
FTUS44 KEWX 281800 AAA
TAFAUS
TAF AMD
KAUS 281839Z 2819/2924 20009KT P6SM SCT023 SCT045 BKN250
     FM290400 35004KT P6SM OVC020
     FM290900 04007KT P6SM -DZ OVC012
     FM291700 02005KT P6SM BKN025 BKN250=



000
FTUS44 KEWX 281700
TAFDRT
TAF
KDRT 281740Z 2818/2918 29004KT P6SM BKN015 OVC250
     FM281830 30005KT P6SM SCT020 BKN250
     FM291000 03006KT P6SM BKN010=



000
FTUS44 KEWX 281700
TAFSAT
TAF
KSAT 281740Z 2818/2924 17003KT P6SM BKN013
     FM281900 17006KT P6SM SCT035 BKN250
     FM290500 03005KT P6SM OVC015
     FM291000 04007KT P6SM -DZ OVC009
     FM291800 05005KT P6SM BKN025 BKN250=



000
FTUS44 KEWX 281700
TAFAUS
TAF
KAUS 281740Z 2818/2924 00000KT P6SM BKN026 OVC200
     FM281900 20007KT P6SM BKN035
     FM290400 35004KT P6SM OVC020
     FM291000 04007KT P6SM -DZ OVC009
     FM291800 05005KT P6SM BKN025 BKN250=



000
FTUS44 KEWX 281400 AAA
TAFDRT
TAF AMD
KDRT 281426Z 2814/2912 29004KT P6SM FEW009
      TEMPO 2814/2816 5SM BR OVC009
     FM281600 04006KT P6SM SCT025
     FM281800 30007KT P6SM SCT250
     FM282300 VRB06KT P6SM SCT250=



000
FTUS44 KEWX 281300 AAA
TAFAUS
TAF AMD
KAUS 281356Z 2814/2918 00000KT P6SM BKN026 OVC200
     FM281600 22006KT P6SM OVC035
     FM282000 20007KT P6SM BKN035
     FM282100 18007KT P6SM BKN100
     FM290100 36006KT P6SM OVC070
     FM290600 35004KT P6SM OVC040=



000
FTUS44 KEWX 281100
TAFDRT
TAF
KDRT 281121Z 2812/2912 09008KT P6SM SCT250
      TEMPO 2813/2815 3SM BR OVC015
     FM281600 04006KT P6SM BKN025
     FM281800 30007KT P6SM SCT250
     FM282300 VRB06KT P6SM SCT250=



000
FTUS44 KEWX 281100
TAFSAT
TAF
KSAT 281121Z 2812/2918 17003KT P6SM BKN013
     FM281600 16007KT P6SM BKN025
     FM281800 17006KT P6SM SCT050 BKN100
     FM290300 09004KT P6SM OVC050
     FM290600 VRB05KT P6SM OVC040=



000
FTUS44 KEWX 281100
TAFAUS
TAF
KAUS 281121Z 2812/2918 00000KT P6SM FEW004 SCT200
      TEMPO 2812/2814 6SM BR BKN012
     FM281600 22006KT P6SM OVC035
     FM282000 20007KT P6SM BKN035
     FM282100 18007KT P6SM BKN100
     FM290100 36006KT P6SM OVC070
     FM290600 35004KT P6SM OVC040=



000
FTUS44 KEWX 280900 AAA
TAFAUS
TAF AMD
KAUS 280953Z 2810/2912 18004KT P6SM SKC
     FM281100 18006KT P6SM BKN012
     FM281600 19008KT P6SM BKN030
     FM282100 20006KT P6SM BKN050 BKN100
     FM290100 35005KT P6SM OVC050
     FM290600 34006KT P6SM OVC040=



000
FTUS44 KEWX 280900 AAA
TAFSAT
TAF AMD
KSAT 280953Z 2810/2912 22003KT P6SM SKC
     FM281100 19006KT P6SM BKN012
     FM281600 16007KT P6SM BKN025
     FM281800 15006KT P6SM SCT050 BKN100
     FM290300 07004KT P6SM OVC050
     FM290600 35005KT P6SM OVC040=



000
FTUS44 KEWX 280900 AAA
TAFSAT
TAF AMD
KSAT 280953Z 2810/2912 22003KT P6SM SKC
     FM281100 19006KT P6SM BKN012
     FM281600 16007KT P6SM BKN025
     FM281800 15006KT P6SM SCT050 BKN100
     FM290300 07004KT P6SM OVC050
     FM290600 35005KT P6SM OVC040=



000
FTUS44 KEWX 280900 AAA
TAFAUS
TAF AMD
KAUS 280953Z 2810/2912 18004KT P6SM SKC
     FM281100 18006KT P6SM BKN012
     FM281600 19008KT P6SM BKN030
     FM282100 20006KT P6SM BKN050 BKN100
     FM290100 35005KT P6SM OVC050
     FM290600 34006KT P6SM OVC040=



    US Dept of Commerce
    National Oceanic and Atmospheric Administration
    National Weather Service
    1325 East West Highway
    Silver Spring, MD 20910
    Page Author: NWS Internet Services Team
Disclaimer
Information Quality
Credits
Glossary
Privacy Policy
Freedom of Information Act (FOIA)
About Us
Career Opportunities